Time;durP1;ratioP1;P1;durP2;ratioP2;P2;SDS_P1;SDS_P2;PMS_P1;PMS_P2;Temp;Humidity;BMP_temperature;BMP_pressure;BME280_temperature;BME280_humidity;BME280_pressure;Samples;Min_cycle;Max_cycle;Signal;HPM_P1;HPM_P2
2023/10/14 00:00:47;;;;;;;14.17;2.80;;;18.20;99.90;;;;;;7287626;19;20186;-90
2023/10/14 00:03:29;;;;;;;11.73;2.60;;;18.10;99.90;;;;;;7289105;19;20191;-89
2023/10/14 00:05:55;;;;;;;12.53;2.83;;;18.00;99.90;;;;;;7275445;19;20173;-90
2023/10/14 00:08:26;;;;;;;14.10;2.77;;;18.10;99.90;;;;;;7310427;19;20185;-88
2023/10/14 00:10:52;;;;;;;15.30;2.93;;;18.20;99.90;;;;;;7290287;19;20189;-89
2023/10/14 00:13:18;;;;;;;6.00;1.00;;;18.10;99.90;;;;;;7289524;19;20188;-88
2023/10/14 00:15:45;;;;;;;4.60;1.00;;;17.90;99.90;;;;;;7288635;19;20256;-88
2023/10/14 00:18:13;;;;;;;4.30;0.87;;;17.60;99.90;;;;;;7288741;19;20559;-88
2023/10/14 00:20:39;;;;;;;3.43;0.60;;;17.30;99.90;;;;;;7289276;19;20595;-88
2023/10/14 00:23:05;;;;;;;1.53;0.50;;;16.90;99.90;;;;;;7288385;19;20215;-88
2023/10/14 00:25:35;;;;;;;3.20;0.60;;;16.70;99.90;;;;;;7289161;19;20196;-88
2023/10/14 00:28:12;;;;;;;1.63;0.60;;;16.70;99.90;;;;;;7287566;19;20207;-88
2023/10/14 00:30:38;;;;;;;3.47;1.20;;;16.70;99.90;;;;;;7288110;19;20192;-88
2023/10/14 00:33:04;;;;;;;5.20;1.60;;;16.70;99.90;;;;;;7288452;19;20182;-88
2023/10/14 00:35:30;;;;;;;4.30;1.80;;;16.80;99.90;;;;;;7286823;19;20555;-88
2023/10/14 00:37:55;;;;;;;5.07;2.40;;;16.80;99.90;;;;;;7287579;19;20191;-88
2023/10/14 00:40:25;;;;;;;2.63;1.50;;;16.90;99.90;;;;;;7287545;19;20183;-88
2023/10/14 00:42:52;;;;;;;4.27;1.33;;;16.70;99.90;;;;;;7307764;19;20262;-88
2023/10/14 00:45:20;;;;;;;2.13;1.03;;;16.50;99.90;;;;;;7288565;19;20210;-88
2023/10/14 00:47:48;;;;;;;1.60;0.90;;;16.40;99.90;;;;;;7284858;19;20190;-88
2023/10/14 00:50:33;;;;;;;2.27;0.43;;;16.30;99.90;;;;;;7286488;19;20250;-87
2023/10/14 00:53:00;;;;;;;1.47;0.70;;;16.20;99.90;;;;;;7183201;19;2004604;-88
2023/10/14 00:55:35;;;;;;;2.17;0.80;;;16.20;99.90;;;;;;7285976;19;20189;-88
2023/10/14 00:58:01;;;;;;;2.40;0.83;;;16.10;99.90;;;;;;7286584;19;20189;-88
2023/10/14 01:03:32;;;;;;;2.70;0.80;;;16.10;99.90;;;;;;7266150;19;20198;-89
2023/10/14 01:06:06;;;;;;;4.60;0.80;;;16.10;99.90;;;;;;7287203;19;20185;-89
2023/10/14 01:08:37;;;;;;;6.60;1.23;;;16.00;99.90;;;;;;7284584;19;20197;-88
2023/10/14 01:11:03;;;;;;;7.40;1.50;;;16.00;99.90;;;;;;7285993;19;20202;-88
2023/10/14 01:13:29;;;;;;;9.90;1.57;;;15.80;99.90;;;;;;7290289;19;20196;-89
2023/10/14 01:16:08;;;;;;;14.63;1.80;;;15.60;99.90;;;;;;7295181;19;20203;-89
2023/10/14 01:18:39;;;;;;;15.57;2.87;;;15.40;99.90;;;;;;7294102;19;20220;-88
2023/10/14 01:21:06;;;;;;;9.47;1.87;;;15.40;99.90;;;;;;7293450;19;20594;-88
2023/10/14 01:23:38;;;;;;;11.17;2.27;;;15.30;99.90;;;;;;7293952;19;20204;-88
2023/10/14 01:26:05;;;;;;;13.63;2.70;;;15.30;99.90;;;;;;7293001;19;20548;-88
2023/10/14 01:28:32;;;;;;;13.80;2.43;;;15.30;99.90;;;;;;7292069;19;20202;-89
2023/10/14 01:31:34;;;;;;;12.27;2.67;;;15.30;99.90;;;;;;7293784;19;20184;-89
2023/10/14 01:34:07;;;;;;;13.83;2.60;;;15.30;99.90;;;;;;7188452;19;2004847;-89
2023/10/14 01:36:38;;;;;;;11.47;2.60;;;15.30;99.90;;;;;;7292601;19;20224;-88
2023/10/14 01:39:09;;;;;;;15.00;2.80;;;15.40;99.90;;;;;;7292832;19;20195;-88
2023/10/14 01:41:35;;;;;;;12.97;2.50;;;15.50;99.90;;;;;;7292183;19;20257;-88
2023/10/14 01:44:05;;;;;;;15.27;2.43;;;15.60;99.90;;;;;;7291594;19;20190;-88
2023/10/14 01:46:34;;;;;;;15.10;2.77;;;15.60;99.90;;;;;;7292066;19;20217;-89
2023/10/14 01:49:15;;;;;;;15.90;2.50;;;15.60;99.90;;;;;;7290909;19;20201;-88
2023/10/14 01:51:41;;;;;;;15.93;2.63;;;15.60;99.90;;;;;;7293239;19;20217;-87
2023/10/14 01:54:09;;;;;;;11.73;2.33;;;15.70;99.90;;;;;;7289725;19;20194;-88
2023/10/14 01:56:37;;;;;;;15.70;2.77;;;15.60;99.90;;;;;;7292772;19;20215;-88
2023/10/14 01:59:03;;;;;;;16.77;2.67;;;15.60;99.90;;;;;;7291788;19;20206;-88
2023/10/14 02:01:34;;;;;;;17.20;2.50;;;15.50;99.90;;;;;;7290892;19;20195;-88
2023/10/14 02:04:00;;;;;;;19.23;2.80;;;15.50;99.90;;;;;;7292807;19;20197;-88
2023/10/14 02:06:32;;;;;;;18.63;2.60;;;15.60;99.90;;;;;;7291109;19;20203;-89
2023/10/14 02:09:04;;;;;;;20.10;3.20;;;15.60;99.90;;;;;;7290820;19;20197;-88
2023/10/14 02:11:33;;;;;;;18.40;2.53;;;15.50;99.90;;;;;;7290506;19;20187;-88
2023/10/14 02:14:07;;;;;;;17.60;2.50;;;15.50;99.90;;;;;;7290307;19;20223;-88
2023/10/14 02:16:44;;;;;;;18.30;2.63;;;15.50;99.90;;;;;;7292077;19;20455;-88
2023/10/14 02:19:21;;;;;;;18.60;2.87;;;15.50;99.90;;;;;;7291001;19;20217;-88
2023/10/14 02:22:09;;;;;;;16.90;3.10;;;15.30;99.90;;;;;;7290851;19;20197;-88
2023/10/14 02:24:33;;;;;;;20.33;3.10;;;15.20;99.90;;;;;;7188710;19;2004711;-88
2023/10/14 02:27:10;;;;;;;22.67;3.27;;;15.20;99.90;;;;;;7294358;19;20182;-88
2023/10/14 02:29:35;;;;;;;19.97;2.53;;;15.20;99.90;;;;;;7292645;19;20184;-89
2023/10/14 02:32:01;;;;;;;17.50;3.03;;;15.10;99.90;;;;;;7295550;19;20192;-88
2023/10/14 02:34:27;;;;;;;17.10;2.87;;;15.00;99.90;;;;;;7293171;19;20264;-89
2023/10/14 02:36:53;;;;;;;19.70;2.67;;;15.00;99.90;;;;;;7313772;19;20188;-88
2023/10/14 02:39:27;;;;;;;20.33;3.13;;;14.90;99.90;;;;;;7295208;19;20185;-88
2023/10/14 02:42:07;;;;;;;19.57;2.43;;;14.90;99.90;;;;;;7296620;19;20177;-88
2023/10/14 02:44:44;;;;;;;20.57;2.70;;;14.80;99.90;;;;;;7192615;19;2004642;-88
2023/10/14 02:47:10;;;;;;;17.73;2.60;;;14.80;99.90;;;;;;7294858;19;20180;-88
2023/10/14 02:49:39;;;;;;;13.53;2.50;;;14.60;99.90;;;;;;7293465;19;20184;-88
2023/10/14 02:52:10;;;;;;;17.43;2.73;;;14.40;99.90;;;;;;7292632;19;20544;-88
2023/10/14 02:54:40;;;;;;;21.30;2.67;;;14.20;99.90;;;;;;7289994;19;20189;-88
2023/10/14 03:02:15;;;;;;;18.67;2.60;;;14.00;99.90;;;;;;7289621;19;20256;-88
2023/10/14 03:07:28;;;;;;;20.47;2.67;;;14.00;99.90;;;;;;7290400;19;20183;-87
2023/10/14 03:10:09;;;;;;;17.57;2.67;;;13.90;99.90;;;;;;7289229;19;20205;-88
2023/10/14 03:12:38;;;;;;;15.80;2.53;;;13.80;99.90;;;;;;7290945;19;20184;-88
2023/10/14 03:15:18;;;;;;;21.33;2.40;;;13.80;99.90;;;;;;7287996;19;20658;-89
2023/10/14 03:17:58;;;;;;;19.97;2.53;;;13.70;99.90;;;;;;7290715;19;20214;-88
2023/10/14 03:22:58;;;;;;;18.67;3.00;;;13.50;99.90;;;;;;7296948;19;20191;-88
2023/10/14 03:25:24;;;;;;;14.37;2.17;;;13.60;99.90;;;;;;7306726;19;20196;-88
2023/10/14 03:28:00;;;;;;;15.70;2.20;;;13.50;99.90;;;;;;7305706;19;20773;-89
2023/10/14 03:30:31;;;;;;;15.97;2.03;;;13.40;99.90;;;;;;7268044;19;20181;-88
2023/10/14 03:32:56;;;;;;;13.73;1.90;;;13.30;99.90;;;;;;7287975;19;20189;-88
2023/10/14 03:35:27;;;;;;;12.67;2.30;;;13.30;99.90;;;;;;7308251;19;20342;-88
2023/10/14 03:37:53;;;;;;;19.40;2.70;;;13.30;99.90;;;;;;7290413;19;20559;-87
2023/10/14 03:43:07;;;;;;;19.73;2.57;;;13.30;99.90;;;;;;7267112;19;20195;-88
2023/10/14 03:45:33;;;;;;;14.63;1.90;;;13.30;99.90;;;;;;7289639;19;20211;-88
2023/10/14 03:48:08;;;;;;;12.73;1.80;;;13.20;99.90;;;;;;7289181;19;20187;-88
2023/10/14 03:50:34;;;;;;;18.00;2.57;;;13.20;99.90;;;;;;7289180;19;20190;-89
2023/10/14 03:53:00;;;;;;;15.50;2.60;;;13.10;99.90;;;;;;7288599;19;20195;-88
2023/10/14 03:55:26;;;;;;;16.97;2.53;;;13.10;99.90;;;;;;7289130;19;20192;-88
2023/10/14 03:57:58;;;;;;;14.03;2.70;;;13.10;99.90;;;;;;7310873;19;20190;-89
2023/10/14 04:00:36;;;;;;;13.87;2.30;;;13.10;99.90;;;;;;7285850;19;20194;-88
2023/10/14 04:03:11;;;;;;;19.17;2.43;;;13.10;99.90;;;;;;7287370;19;20286;-87
2023/10/14 04:05:46;;;;;;;18.60;3.10;;;13.10;99.90;;;;;;7289914;19;20193;-88
2023/10/14 04:08:13;;;;;;;19.17;2.93;;;13.00;99.90;;;;;;7288439;19;20189;-88
2023/10/14 04:10:43;;;;;;;17.27;2.57;;;12.90;99.90;;;;;;7288867;19;20188;-88
2023/10/14 04:13:13;;;;;;;16.60;2.40;;;12.80;99.90;;;;;;7287359;19;20195;-88
2023/10/14 04:15:51;;;;;;;19.17;2.73;;;12.70;99.90;;;;;;7287581;19;20579;-89
2023/10/14 04:18:24;;;;;;;18.67;2.60;;;12.70;99.90;;;;;;7288538;19;20201;-89
2023/10/14 04:21:14;;;;;;;15.87;2.50;;;12.70;99.90;;;;;;7287489;19;20189;-89
2023/10/14 04:24:00;;;;;;;17.90;2.50;;;12.80;99.90;;;;;;7185135;19;2004766;-88
2023/10/14 04:26:31;;;;;;;14.17;2.43;;;12.80;99.90;;;;;;7266849;19;20191;-88
2023/10/14 04:28:58;;;;;;;19.80;2.10;;;12.60;99.90;;;;;;7286718;19;20278;-89
2023/10/14 04:31:39;;;;;;;14.53;2.37;;;12.70;99.90;;;;;;7307516;19;20292;-89
2023/10/14 04:34:07;;;;;;;16.27;2.40;;;12.60;99.90;;;;;;7287054;19;20208;-89
2023/10/14 04:36:37;;;;;;;17.37;2.10;;;12.60;99.90;;;;;;7287350;19;20229;-88
2023/10/14 04:39:15;;;;;;;14.40;2.77;;;12.60;99.90;;;;;;7286933;19;20218;-88
2023/10/14 04:44:44;;;;;;;20.73;2.37;;;12.60;99.90;;;;;;7184885;19;2004596;-88
2023/10/14 04:47:19;;;;;;;15.37;2.07;;;12.50;99.90;;;;;;7287878;19;20658;-89
2023/10/14 04:49:51;;;;;;;13.50;2.60;;;12.50;99.90;;;;;;7287786;19;20308;-89
2023/10/14 04:52:22;;;;;;;15.03;2.33;;;12.60;99.90;;;;;;7288580;19;20197;-88
2023/10/14 04:55:08;;;;;;;19.47;2.30;;;12.60;99.90;;;;;;7291421;19;20191;-88
2023/10/14 04:57:34;;;;;;;17.27;2.37;;;12.60;99.90;;;;;;7197964;19;2004662;-88
2023/10/14 05:00:08;;;;;;;13.67;2.67;;;12.50;99.90;;;;;;7290692;19;20669;-90
2023/10/14 05:02:38;;;;;;;20.43;2.37;;;12.50;99.90;;;;;;7288110;19;20185;-89
2023/10/14 05:05:07;;;;;;;20.30;2.57;;;12.40;99.90;;;;;;7286811;19;20222;-87
2023/10/14 05:07:35;;;;;;;14.93;2.67;;;12.40;99.90;;;;;;7286051;19;20203;-87
2023/10/14 05:10:09;;;;;;;20.43;2.83;;;12.40;99.90;;;;;;7284805;19;20209;-87
2023/10/14 05:12:51;;;;;;;16.23;2.27;;;12.50;99.90;;;;;;7286144;19;20201;-87
2023/10/14 05:15:20;;;;;;;14.87;2.17;;;12.40;99.90;;;;;;7286199;19;20197;-87
2023/10/14 05:17:53;;;;;;;16.03;2.33;;;12.30;99.90;;;;;;7286227;19;20188;-87
2023/10/14 05:20:29;;;;;;;20.60;2.83;;;12.20;99.90;;;;;;7286167;19;20249;-87
2023/10/14 05:22:56;;;;;;;19.30;2.50;;;12.20;99.90;;;;;;7279853;19;20193;-87
2023/10/14 05:25:27;;;;;;;17.77;2.63;;;12.20;99.90;;;;;;7307668;19;20182;-89
2023/10/14 05:27:58;;;;;;;17.67;2.40;;;12.20;99.90;;;;;;7285732;19;20213;-90
2023/10/14 05:30:33;;;;;;;14.20;2.90;;;12.10;99.90;;;;;;7286700;19;20192;-90
2023/10/14 05:33:06;;;;;;;18.27;2.27;;;12.20;99.90;;;;;;7264921;19;20262;-89
2023/10/14 05:35:39;;;;;;;18.23;2.57;;;12.20;99.90;;;;;;7286460;19;20294;-89
2023/10/14 05:38:11;;;;;;;13.73;2.47;;;12.10;99.90;;;;;;7287101;19;20206;-91
2023/10/14 05:40:41;;;;;;;15.03;2.33;;;12.00;99.90;;;;;;7286479;19;20648;-90
2023/10/14 05:43:08;;;;;;;15.83;2.07;;;12.00;99.90;;;;;;7286315;19;20187;-90
2023/10/14 05:45:37;;;;;;;15.40;2.90;;;12.00;99.90;;;;;;7286125;19;20195;-91
2023/10/14 05:48:04;;;;;;;16.13;2.40;;;11.90;99.90;;;;;;7285864;19;20189;-90
2023/10/14 05:50:35;;;;;;;16.57;2.33;;;11.90;99.90;;;;;;7285871;19;20550;-89
2023/10/14 05:53:01;;;;;;;26.37;3.00;;;12.00;99.90;;;;;;7286236;19;20298;-89
2023/10/14 05:55:29;;;;;;;17.33;3.27;;;12.00;99.90;;;;;;7285942;19;20186;-90
2023/10/14 05:58:00;;;;;;;17.03;2.90;;;12.00;99.90;;;;;;7305072;19;20782;-90
2023/10/14 06:00:29;;;;;;;18.23;2.87;;;12.00;99.90;;;;;;7298131;19;20203;-89
2023/10/14 06:02:57;;;;;;;14.30;2.73;;;11.90;99.90;;;;;;7310444;19;20253;-89
2023/10/14 06:05:27;;;;;;;17.87;2.00;;;11.90;99.90;;;;;;7315198;19;20188;-90
2023/10/14 06:08:39;;;;;;;16.20;2.40;;;11.90;99.90;;;;;;7294029;19;20193;-90
2023/10/14 06:10:41;;;;;;;20.77;2.30;;;11.90;99.90;;;;;;7190040;19;2004449;-90
2023/10/14 06:13:11;;;;;;;16.20;2.17;;;11.90;99.90;;;;;;7292687;19;20209;-90
2023/10/14 06:15:38;;;;;;;12.73;2.37;;;11.90;99.90;;;;;;7293684;19;20182;-90
2023/10/14 06:18:05;;;;;;;18.40;2.70;;;11.80;99.90;;;;;;7292571;19;20194;-90
2023/10/14 06:20:35;;;;;;;23.50;3.17;;;11.90;99.90;;;;;;7292831;19;20310;-90
2023/10/14 06:23:01;;;;;;;14.17;2.00;;;11.90;99.90;;;;;;7293700;19;20190;-89
2023/10/14 06:25:29;;;;;;;22.87;2.83;;;12.00;99.90;;;;;;7293820;19;20294;-88
2023/10/14 06:27:55;;;;;;;17.67;2.27;;;12.00;99.90;;;;;;7312300;19;20178;-89
2023/10/14 06:30:21;;;;;;;18.50;2.90;;;12.00;99.90;;;;;;7305239;19;20217;-87
2023/10/14 06:32:48;;;;;;;12.10;2.50;;;12.10;99.90;;;;;;7291163;19;20309;-88
2023/10/14 06:35:17;;;;;;;15.77;2.50;;;12.10;99.90;;;;;;7291691;19;20656;-87
2023/10/14 06:37:45;;;;;;;16.67;2.90;;;12.00;99.90;;;;;;7292222;19;20431;-88
2023/10/14 06:40:18;;;;;;;17.30;2.63;;;12.10;99.90;;;;;;7292175;19;20199;-87
2023/10/14 06:42:44;;;;;;;17.73;2.33;;;12.20;99.90;;;;;;7290321;19;20194;-86
2023/10/14 06:45:17;;;;;;;16.23;1.93;;;12.20;99.90;;;;;;7292030;19;20196;-87
2023/10/14 06:47:51;;;;;;;19.13;2.70;;;12.20;99.90;;;;;;7292043;19;20195;-88
2023/10/14 06:50:23;;;;;;;20.70;2.30;;;12.20;99.90;;;;;;7290479;19;20201;-88
2023/10/14 06:52:58;;;;;;;13.87;2.13;;;12.20;99.90;;;;;;7291902;19;20212;-88
2023/10/14 06:55:26;;;;;;;16.83;2.20;;;12.50;99.90;;;;;;7290433;19;20187;-89
2023/10/14 06:57:55;;;;;;;13.03;2.20;;;13.20;99.90;;;;;;7288224;19;20309;-88
2023/10/14 07:00:29;;;;;;;12.93;1.70;;;14.10;99.90;;;;;;7302491;19;20197;-89
2023/10/14 07:02:57;;;;;;;16.10;2.07;;;14.40;99.90;;;;;;7284524;19;20190;-89
2023/10/14 07:05:24;;;;;;;16.20;2.90;;;14.90;99.90;;;;;;7313026;19;20181;-88
2023/10/14 07:07:49;;;;;;;15.60;2.67;;;15.80;99.90;;;;;;7290287;19;20606;-89
2023/10/14 07:10:16;;;;;;;11.63;2.37;;;16.80;99.90;;;;;;7286593;19;20202;-89
2023/10/14 07:12:42;;;;;;;11.97;2.17;;;17.10;99.90;;;;;;7289422;19;20203;-88
2023/10/14 07:15:14;;;;;;;16.53;2.20;;;16.90;99.90;;;;;;7290967;19;20202;-88
2023/10/14 07:17:41;;;;;;;14.20;2.43;;;16.40;99.90;;;;;;7289998;19;20269;-88
2023/10/14 07:20:10;;;;;;;13.77;2.70;;;15.50;99.90;;;;;;7290001;19;20220;-89
2023/10/14 07:22:37;;;;;;;18.37;3.20;;;15.20;99.90;;;;;;7288365;19;20194;-88
2023/10/14 07:25:05;;;;;;;18.20;2.30;;;14.80;99.90;;;;;;7289533;19;20185;-88
2023/10/14 07:27:35;;;;;;;17.33;2.70;;;14.50;99.90;;;;;;7291312;19;20510;-88
2023/10/14 07:30:13;;;;;;;16.63;2.17;;;14.40;99.90;;;;;;7288808;19;20294;-89
2023/10/14 07:32:44;;;;;;;14.40;2.77;;;14.10;99.90;;;;;;7288770;19;20551;-90
2023/10/14 07:35:12;;;;;;;14.70;2.10;;;14.10;99.90;;;;;;7287804;19;20206;-89
2023/10/14 07:37:44;;;;;;;16.30;2.40;;;14.20;99.90;;;;;;7290385;19;20201;-89
2023/10/14 07:40:22;;;;;;;15.77;2.97;;;13.90;99.90;;;;;;7291035;19;20187;-88
2023/10/14 07:43:10;;;;;;;12.07;2.27;;;13.90;99.90;;;;;;7289789;19;20254;-88
2023/10/14 07:45:46;;;;;;;16.43;2.43;;;13.90;99.90;;;;;;7188016;19;2004687;-88
2023/10/14 07:48:13;;;;;;;14.33;2.40;;;13.80;99.90;;;;;;7290172;19;20208;-89
2023/10/14 07:50:40;;;;;;;19.57;2.40;;;13.80;99.90;;;;;;7288792;19;20194;-88
2023/10/14 07:53:07;;;;;;;16.07;2.30;;;13.80;99.90;;;;;;7289374;19;20619;-88
2023/10/14 07:55:49;;;;;;;16.60;2.33;;;13.70;99.90;;;;;;7288883;19;20203;-89
2023/10/14 07:58:18;;;;;;;16.30;2.37;;;13.90;99.90;;;;;;7290256;19;20182;-88
2023/10/14 08:00:52;;;;;;;14.20;2.87;;;14.00;99.90;;;;;;7289583;19;20654;-88
2023/10/14 08:03:22;;;;;;;17.10;2.97;;;13.90;99.90;;;;;;7287808;19;20194;-89
2023/10/14 08:05:51;;;;;;;16.73;2.33;;;13.90;99.90;;;;;;7288614;19;20203;-88
2023/10/14 08:08:19;;;;;;;12.07;2.30;;;13.90;99.90;;;;;;7289013;19;20208;-90
2023/10/14 08:10:51;;;;;;;14.70;2.50;;;13.80;99.90;;;;;;7288868;19;20195;-89
2023/10/14 08:13:21;;;;;;;20.47;2.93;;;13.70;99.90;;;;;;7287268;19;20813;-88
2023/10/14 08:15:56;;;;;;;15.93;2.63;;;13.80;99.90;;;;;;7286875;19;20219;-88
2023/10/14 08:18:23;;;;;;;15.50;2.53;;;13.90;99.90;;;;;;7289914;19;20194;-89
2023/10/14 08:20:52;;;;;;;16.20;2.53;;;13.90;99.90;;;;;;7286406;19;20190;-89
2023/10/14 08:23:20;;;;;;;15.93;2.80;;;13.90;99.90;;;;;;7287406;19;20235;-88
2023/10/14 08:25:47;;;;;;;15.73;2.33;;;13.80;99.90;;;;;;7288485;19;20193;-88
2023/10/14 08:28:13;;;;;;;17.00;2.30;;;13.70;99.90;;;;;;7287910;19;20197;-89
2023/10/14 08:30:45;;;;;;;18.10;2.43;;;13.70;99.90;;;;;;7289731;19;20183;-88
2023/10/14 08:33:15;;;;;;;15.40;2.40;;;13.70;99.90;;;;;;7288808;19;20193;-89
2023/10/14 08:35:42;;;;;;;15.93;2.27;;;13.90;99.90;;;;;;7288004;19;20195;-88
2023/10/14 08:38:17;;;;;;;13.17;2.20;;;13.90;99.90;;;;;;7289717;19;20544;-89
2023/10/14 08:40:49;;;;;;;17.17;2.40;;;14.00;99.90;;;;;;7286957;19;20199;-88
2023/10/14 08:43:21;;;;;;;15.20;2.23;;;14.10;99.90;;;;;;7288389;19;20703;-88
2023/10/14 08:45:51;;;;;;;20.30;2.70;;;14.10;99.90;;;;;;7288277;19;20704;-89
2023/10/14 08:48:19;;;;;;;15.10;2.20;;;14.20;99.90;;;;;;7287813;19;20639;-88
2023/10/14 08:50:47;;;;;;;15.67;2.43;;;14.20;99.90;;;;;;7287071;19;20179;-90
2023/10/14 08:53:13;;;;;;;16.23;2.20;;;14.30;99.90;;;;;;7287133;19;20207;-87
2023/10/14 08:55:40;;;;;;;16.40;2.47;;;14.50;99.90;;;;;;7286679;19;20651;-88
2023/10/14 08:58:13;;;;;;;16.50;2.67;;;14.40;99.90;;;;;;7287375;19;20183;-89
2023/10/14 09:00:40;;;;;;;17.87;2.87;;;14.30;99.90;;;;;;7287095;19;20222;-88
2023/10/14 09:03:07;;;;;;;17.67;2.20;;;14.40;99.90;;;;;;7286850;19;20207;-89
2023/10/14 09:05:46;;;;;;;13.17;2.30;;;14.60;99.90;;;;;;7288657;19;20191;-88
2023/10/14 09:08:14;;;;;;;14.00;2.50;;;14.50;99.90;;;;;;7295192;19;20207;-89
2023/10/14 09:10:42;;;;;;;17.90;2.87;;;14.60;99.90;;;;;;7293430;19;20188;-90
2023/10/14 09:13:10;;;;;;;10.77;2.20;;;14.80;99.90;;;;;;7295646;19;20205;-89
2023/10/14 09:15:41;;;;;;;16.57;1.90;;;14.70;99.90;;;;;;7293115;19;20181;-89
2023/10/14 09:18:14;;;;;;;16.60;2.90;;;14.70;99.90;;;;;;7296308;19;20686;-90
2023/10/14 09:20:41;;;;;;;15.73;2.40;;;14.70;99.90;;;;;;7295814;19;20189;-89
2023/10/14 09:23:34;;;;;;;17.37;2.40;;;14.70;99.90;;;;;;7294832;19;20215;-89
2023/10/14 09:26:02;;;;;;;16.23;2.67;;;14.90;99.90;;;;;;7265435;19;20231;-89
2023/10/14 09:28:29;;;;;;;13.57;2.17;;;15.10;99.90;;;;;;7294638;19;20195;-89
2023/10/14 09:30:57;;;;;;;18.40;3.00;;;14.90;99.90;;;;;;7307586;19;20209;-89
2023/10/14 09:33:35;;;;;;;16.37;2.43;;;14.90;99.90;;;;;;7288686;19;20215;-90
2023/10/14 09:36:16;;;;;;;;;;;;;;;;;;;;;
2023/10/14 09:38:48;;;;;;;15.97;2.07;;;15.00;99.90;;;;;;7295556;19;20280;-89
2023/10/14 09:41:15;;;;;;;13.17;2.03;;;15.00;99.90;;;;;;7293136;19;20259;-89
2023/10/14 09:43:48;;;;;;;18.00;2.33;;;15.00;99.90;;;;;;7292075;19;20261;-89
2023/10/14 09:46:19;;;;;;;18.83;2.60;;;15.30;99.90;;;;;;7293682;19;20183;-89
2023/10/14 09:48:46;;;;;;;14.60;2.23;;;16.30;99.90;;;;;;7292427;19;20549;-89
2023/10/14 09:51:16;;;;;;;15.73;2.87;;;18.60;99.90;;;;;;7292343;19;20193;-89
2023/10/14 09:53:46;;;;;;;16.53;2.57;;;20.40;99.90;;;;;;7291189;19;20189;-89
2023/10/14 09:56:12;;;;;;;14.93;2.70;;;21.00;99.90;;;;;;7291532;19;20191;-89
2023/10/14 09:58:43;;;;;;;13.50;2.77;;;21.20;99.90;;;;;;7292442;19;20218;-90
2023/10/14 10:01:16;;;;;;;13.17;2.50;;;22.00;99.90;;;;;;7291605;19;20201;-91
2023/10/14 10:03:49;;;;;;;16.37;2.67;;;22.20;99.90;;;;;;7291244;19;20291;-91
2023/10/14 10:06:15;;;;;;;13.60;2.50;;;22.20;99.90;;;;;;7291844;19;20187;-91
2023/10/14 10:09:02;;;;;;;19.70;2.60;;;22.50;99.90;;;;;;7290710;19;20548;-91
2023/10/14 10:11:29;;;;;;;14.03;2.27;;;22.60;99.90;;;;;;7279077;19;20667;-91
2023/10/14 10:13:59;;;;;;;16.40;3.00;;;22.40;99.90;;;;;;7313660;19;20208;-89
2023/10/14 10:16:31;;;;;;;16.83;2.83;;;21.70;99.90;;;;;;7292329;19;20247;-90
2023/10/14 10:18:59;;;;;;;19.30;2.53;;;20.80;99.90;;;;;;7287537;19;20727;-90
2023/10/14 10:21:32;;;;;;;15.87;2.63;;;20.40;99.90;;;;;;7313433;19;20295;-90
2023/10/14 10:24:33;;;;;;;17.40;2.50;;;20.40;99.90;;;;;;7275871;19;20374;-90
2023/10/14 10:27:10;;;;;;;14.60;2.20;;;19.60;99.90;;;;;;7270965;19;20642;-90
2023/10/14 10:29:47;;;;;;;17.13;2.40;;;19.20;99.90;;;;;;7291337;19;20188;-90
2023/10/14 10:32:20;;;;;;;17.27;2.43;;;18.90;99.90;;;;;;7292498;19;20189;-90
2023/10/14 10:35:05;;;;;;;15.40;2.97;;;19.40;99.90;;;;;;7290769;19;20188;-90
2023/10/14 10:37:40;;;;;;;16.53;2.77;;;20.60;99.90;;;;;;7269145;19;20202;-91
2023/10/14 10:40:11;;;;;;;10.87;2.20;;;20.80;99.90;;;;;;7291301;19;20254;-91
2023/10/14 10:42:45;;;;;;;14.17;2.50;;;20.70;99.90;;;;;;7290788;19;20422;-90
2023/10/14 10:45:29;;;;;;;13.20;2.53;;;21.20;99.90;;;;;;7290752;19;20216;-90
2023/10/14 10:48:04;;;;;;;12.60;2.70;;;21.10;99.90;;;;;;7291690;19;20212;-91
2023/10/14 10:50:40;;;;;;;14.67;2.83;;;20.50;99.90;;;;;;7268219;19;20190;-90
2023/10/14 10:53:10;;;;;;;11.47;2.10;;;20.00;99.90;;;;;;7291649;19;20186;-91
2023/10/14 10:55:42;;;;;;;17.03;2.63;;;19.40;99.90;;;;;;7290768;19;20187;-90
2023/10/14 10:58:13;;;;;;;17.80;2.63;;;19.20;99.90;;;;;;7291212;19;20193;-90
2023/10/14 11:00:46;;;;;;;16.30;2.47;;;19.10;99.90;;;;;;7291351;19;20193;-90
2023/10/14 11:03:15;;;;;;;12.90;2.33;;;18.80;99.90;;;;;;7291138;19;20216;-90
2023/10/14 11:05:43;;;;;;;12.73;2.33;;;18.90;99.90;;;;;;7291229;19;20196;-91
2023/10/14 11:08:10;;;;;;;15.63;2.20;;;18.70;99.90;;;;;;7289916;19;20217;-90
2023/10/14 11:10:38;;;;;;;14.17;2.43;;;18.40;99.90;;;;;;7290539;19;20191;-91
2023/10/14 11:13:07;;;;;;;14.23;2.23;;;18.20;99.90;;;;;;7290014;19;20192;-91
2023/10/14 11:15:37;;;;;;;14.17;2.00;;;17.70;99.90;;;;;;7296575;19;20206;-87
2023/10/14 11:18:13;;;;;;;14.93;2.10;;;17.30;99.90;;;;;;7307456;19;20193;-91
2023/10/14 11:21:02;;;;;;;13.00;2.07;;;17.00;99.90;;;;;;7310557;19;20211;-88
2023/10/14 11:23:35;;;;;;;12.13;1.97;;;16.60;99.90;;;;;;7292440;19;20196;-90
2023/10/14 11:26:11;;;;;;;9.77;2.20;;;15.70;99.90;;;;;;7298270;19;20199;-89
2023/10/14 11:28:38;;;;;;;10.03;1.67;;;15.40;99.90;;;;;;7287577;19;20197;-90
2023/10/14 11:31:08;;;;;;;14.20;2.17;;;15.30;99.90;;;;;;7286800;19;20193;-90
2023/10/14 11:33:37;;;;;;;13.77;1.83;;;15.20;99.90;;;;;;7286325;19;20293;-90
2023/10/14 11:36:04;;;;;;;17.17;2.37;;;15.30;99.90;;;;;;7286078;19;20189;-90
2023/10/14 11:38:31;;;;;;;14.77;1.83;;;15.00;99.90;;;;;;7286276;19;20665;-89
2023/10/14 11:41:02;;;;;;;17.27;2.07;;;14.80;99.90;;;;;;7307624;19;20707;-90
2023/10/14 11:43:30;;;;;;;15.30;2.00;;;14.50;99.90;;;;;;7298628;19;20219;-90
2023/10/14 11:45:56;;;;;;;15.20;2.30;;;14.20;99.90;;;;;;7306852;19;20674;-89
2023/10/14 11:48:24;;;;;;;12.57;1.87;;;14.10;99.90;;;;;;7286277;19;20796;-89
2023/10/14 11:51:03;;;;;;;16.27;2.40;;;14.20;99.90;;;;;;7285863;19;20195;-89
2023/10/14 11:53:32;;;;;;;13.07;2.27;;;14.20;99.90;;;;;;7263481;19;20281;-89
2023/10/14 11:56:02;;;;;;;11.80;1.70;;;14.30;99.90;;;;;;7297639;19;20895;-89
2023/10/14 11:58:31;;;;;;;14.83;1.60;;;14.30;99.90;;;;;;7299784;19;20225;-88
2023/10/14 12:00:58;;;;;;;8.67;1.53;;;14.40;99.90;;;;;;7302778;19;20567;-88
2023/10/14 12:03:27;;;;;;;13.17;1.60;;;14.40;99.90;;;;;;7307314;19;20825;-89
2023/10/14 12:05:58;;;;;;;7.33;1.20;;;14.50;99.90;;;;;;7286080;19;20215;-90
2023/10/14 12:08:26;;;;;;;12.73;1.63;;;14.80;99.90;;;;;;7286012;19;20251;-90
2023/10/14 12:10:53;;;;;;;10.40;1.70;;;15.10;99.90;;;;;;7285520;19;20213;-88
2023/10/14 12:13:20;;;;;;;12.00;1.63;;;15.30;99.90;;;;;;7285101;19;20181;-89
2023/10/14 12:15:46;;;;;;;8.10;1.80;;;15.40;99.90;;;;;;7285498;19;20188;-89
2023/10/14 12:18:13;;;;;;;9.10;1.60;;;15.60;99.90;;;;;;7285368;19;20203;-89
2023/10/14 12:20:41;;;;;;;10.20;1.80;;;15.90;99.90;;;;;;7284788;19;20196;-90
2023/10/14 12:23:06;;;;;;;12.73;1.90;;;16.30;99.90;;;;;;7285608;19;20198;-90
2023/10/14 12:25:32;;;;;;;14.00;1.97;;;16.60;99.90;;;;;;7284135;19;20199;-90
2023/10/14 12:27:58;;;;;;;11.80;1.70;;;16.80;99.90;;;;;;7297301;19;20199;-89
2023/10/14 12:30:43;;;;;;;12.83;2.43;;;16.40;99.90;;;;;;7303085;19;20246;-90
2023/10/14 12:33:18;;;;;;;12.27;1.80;;;16.40;99.90;;;;;;7181528;19;2004430;-90
2023/10/14 12:35:45;;;;;;;12.50;1.87;;;16.60;99.90;;;;;;7285022;19;20197;-90
2023/10/14 12:38:13;;;;;;;10.63;1.90;;;17.00;99.90;;;;;;7350765;19;20217;-89
2023/10/14 12:40:39;;;;;;;14.57;1.90;;;17.70;99.90;;;;;;7277176;19;20217;-89
2023/10/14 12:43:05;;;;;;;12.07;2.17;;;18.60;99.90;;;;;;7283354;19;20200;-90
2023/10/14 12:45:32;;;;;;;11.20;1.90;;;19.60;99.90;;;;;;7284245;19;20645;-90
2023/10/14 12:48:10;;;;;;;9.77;1.93;;;19.20;99.90;;;;;;7284147;19;20548;-89
2023/10/14 12:50:46;;;;;;;11.37;1.70;;;19.10;99.90;;;;;;7284686;19;20192;-90
2023/10/14 12:53:12;;;;;;;12.47;1.80;;;18.70;99.90;;;;;;7288439;19;20209;-91
2023/10/14 12:55:44;;;;;;;12.07;1.80;;;18.40;99.90;;;;;;7288169;19;20234;-90
2023/10/14 12:58:12;;;;;;;14.07;2.10;;;18.20;99.90;;;;;;7284950;19;20186;-91
2023/10/14 13:00:38;;;;;;;12.23;1.80;;;18.00;99.90;;;;;;7290799;19;20199;-91
2023/10/14 13:03:09;;;;;;;13.17;1.90;;;17.90;99.90;;;;;;7287380;19;20190;-90
2023/10/14 13:05:36;;;;;;;8.77;2.10;;;17.50;99.90;;;;;;7285949;19;20199;-90
2023/10/14 13:08:02;;;;;;;14.47;1.90;;;17.50;99.90;;;;;;7291464;19;20200;-94
2023/10/14 13:10:29;;;;;;;15.10;2.10;;;17.60;99.90;;;;;;7295176;19;20223;-90
2023/10/14 13:12:57;;;;;;;13.03;1.60;;;17.50;99.90;;;;;;7295164;19;20221;-92
2023/10/14 13:15:31;;;;;;;11.20;2.10;;;17.50;99.90;;;;;;7302696;19;20192;-92